.
WxDataArchive / Data Records for 2010-02-10
2010-02-09 February 2010 2010-02-11

Data Records for Wednesday, 10 February 2010

Time	Temp	Chill	HIndex	Humid	Dewpt	 Wind 	HiWind	WindDir	Rain 	Barom 
-----	----	-----	------	-----	-----	------	------	-------	-----	----- 
00:00	13.3	13.3	13.3	85	9.7	3	5	248	0.00	29.674 
00:05	13.1	13.1	13.1	85	9.5	3	6	248	0.00	29.674 
00:10	12.8	12.8	12.8	85	9.2	3	10	248	0.00	29.674 
00:15	12.6	5.7	12.6	84	8.7	4	9	248	0.00	29.677 
00:20	12.4	12.4	12.4	84	8.5	3	7	248	0.00	29.677 
00:25	12.3	12.3	12.3	84	8.4	3	10	248	0.00	29.677 
00:30	12.3	12.3	12.3	84	8.4	2	5	248	0.00	29.680 
00:35	12.1	5.1	12.1	84	8.2	4	9	248	0.00	29.680 
00:40	12.1	5.1	12.1	84	8.2	4	10	270	0.00	29.680 
00:45	11.9	11.9	11.9	84	8.0	3	7	248	0.00	29.683 
00:50	11.9	11.9	11.9	84	8.0	3	7	248	0.00	29.683 
00:55	11.9	11.9	11.9	84	8.0	3	9	270	0.00	29.683 
01:00	11.7	11.7	11.7	84	7.8	3	6	270	0.00	29.679 
01:05	11.7	11.7	11.7	84	7.8	3	6	270	0.00	29.679 
01:10	11.7	11.7	11.7	84	7.8	3	10	270	0.00	29.679 
01:15	11.7	11.7	11.7	84	7.8	2	6	248	0.00	29.678 
01:20	11.7	11.7	11.7	84	7.8	3	8	248	0.00	29.678 
01:25	11.7	11.7	11.7	84	7.8	2	4	248	0.00	29.678 
01:30	11.7	11.7	11.7	84	7.8	3	7	248	0.00	29.676 
01:35	11.7	11.7	11.7	84	7.8	2	5	248	0.00	29.676 
01:40	11.7	11.7	11.7	84	7.8	2	5	248	0.00	29.676 
01:45	11.6	11.6	11.6	84	7.7	2	7	248	0.00	29.672 
01:50	11.6	11.6	11.6	84	7.7	2	7	248	0.00	29.672 
01:55	11.6	11.6	11.6	84	7.7	2	5	248	0.00	29.672 
02:00	11.6	11.6	11.6	84	7.7	2	5	248	0.00	29.671 
02:05	11.6	11.6	11.6	84	7.7	3	6	248	0.00	29.671 
02:10	11.4	11.4	11.4	84	7.5	2	5	248	0.00	29.671 
02:15	11.4	11.4	11.4	84	7.5	2	4	248	0.00	29.676 
02:20	11.2	11.2	11.2	84	7.3	3	7	248	0.00	29.676 
02:25	11.2	11.2	11.2	84	7.3	2	5	225	0.00	29.676 
02:30	11.2	11.2	11.2	84	7.3	2	5	248	0.00	29.681 
02:35	11.2	11.2	11.2	84	7.3	2	5	248	0.00	29.681 
02:40	11.2	11.2	11.2	84	7.3	2	5	248	0.00	29.681 
02:45	11.4	11.4	11.4	84	7.5	2	5	248	0.00	29.683 
02:50	11.4	11.4	11.4	84	7.5	2	4	248	0.00	29.683 
02:55	11.4	11.4	11.4	84	7.5	2	5	248	0.00	29.683 
03:00	11.6	11.6	11.6	84	7.7	2	4	248	0.00	29.683 
03:05	11.6	11.6	11.6	84	7.7	2	4	225	0.00	29.683 
03:10	11.6	11.6	11.6	84	7.7	2	6	225	0.00	29.683 
03:15	11.7	11.7	11.7	85	8.1	2	4	248	0.00	29.685 
03:20	11.9	11.9	11.9	85	8.3	2	4	248	0.00	29.685 
03:25	11.9	11.9	11.9	85	8.3	1	3	248	0.00	29.685 
03:30	12.1	12.1	12.1	85	8.5	1	4	248	0.00	29.685 
03:35	12.3	12.3	12.3	85	8.7	2	4	248	0.00	29.685 
03:40	12.4	12.4	12.4	85	8.8	1	3	248	0.00	29.685 
03:45	12.6	12.6	12.6	85	9.0	2	4	248	0.00	29.686 
03:50	12.8	12.8	12.8	86	9.4	1	3	248	0.00	29.686 
03:55	12.9	12.9	12.9	86	9.5	2	4	248	0.00	29.686 
04:00	13.1	13.1	13.1	86	9.7	2	4	248	0.00	29.686 
04:05	13.3	13.3	13.3	86	9.9	1	3	248	0.00	29.686 
04:10	13.6	13.6	13.6	86	10.2	1	4	248	0.00	29.686 
04:15	13.8	13.8	13.8	86	10.4	2	3	248	0.00	29.687 
04:20	14.0	14.0	14.0	86	10.6	1	3	248	0.00	29.687 
04:25	14.0	14.0	14.0	87	10.9	2	3	248	0.00	29.687 
04:30	14.3	14.3	14.3	87	11.2	2	6	248	0.00	29.689 
04:35	14.4	14.4	14.4	87	11.3	1	3	292	0.00	29.689 
04:40	14.9	14.9	14.9	88	12.0	2	4	248	0.00	29.689 
04:45	15.1	15.1	15.1	87	11.9	1	3	270	0.00	29.685 
04:50	15.4	15.4	15.4	88	12.5	1	3	270	0.00	29.685 
04:55	15.6	15.6	15.6	88	12.7	1	3	270	0.00	29.685 
05:00	15.9	15.9	15.9	88	13.0	1	3	315	0.00	29.692 
05:05	16.2	16.2	16.2	88	13.3	1	4	270	0.00	29.692 
05:10	16.5	16.5	16.5	88	13.6	1	3	270	0.00	29.692 
05:15	16.7	16.7	16.7	88	13.8	1	3	270	0.00	29.697 
05:20	17.2	17.2	17.2	89	14.5	1	4	270	0.00	29.697 
05:25	17.5	17.5	17.5	89	14.8	1	3	248	0.00	29.697 
05:30	18.0	18.0	18.0	89	15.3	1	3	248	0.00	29.699 
05:35	18.3	18.3	18.3	89	15.6	1	3	248	0.00	29.699 
05:40	18.6	18.6	18.6	89	15.9	1	3	315	0.00	29.699 
05:45	19.1	19.1	19.1	90	16.7	2	4	315	0.00	29.700 
05:50	19.5	19.5	19.5	90	17.1	2	4	292	0.00	29.700 
05:55	19.9	19.9	19.9	90	17.5	2	4	315	0.00	29.700 
06:00	20.0	20.0	20.0	90	17.5	1	4	338	0.00	29.711 
06:05	20.0	20.0	20.0	89	17.3	2	4	338	0.00	29.711 
06:10	20.0	20.0	20.0	89	17.3	1	5	315	0.00	29.711 
06:15	20.2	20.2	20.2	89	17.5	2	4	315	0.00	29.720 
06:20	20.2	20.2	20.2	89	17.5	2	4	315	0.00	29.720 
06:25	20.2	20.2	20.2	89	17.5	2	4	0	0.00	29.720 
06:30	20.2	20.2	20.2	89	17.5	2	6	338	0.00	29.725 
06:35	20.2	20.2	20.2	88	17.2	2	6	315	0.00	29.725 
06:40	20.2	20.2	20.2	88	17.2	2	5	315	0.00	29.725 
06:45	20.2	20.2	20.2	88	17.2	2	6	338	0.00	29.730 
06:50	20.2	20.2	20.2	88	17.2	3	9	315	0.00	29.730 
06:55	20.2	20.2	20.2	88	17.2	2	5	315	0.00	29.730 
07:00	20.2	20.2	20.2	88	17.2	2	9	338	0.00	29.736 
07:05	20.2	20.2	20.2	88	17.2	3	9	270	0.00	29.736 
07:10	20.3	20.3	20.3	88	17.3	2	5	315	0.00	29.736 
07:15	20.3	20.3	20.3	88	17.3	2	9	338	0.00	29.744 
07:20	20.3	20.3	20.3	88	17.3	2	5	270	0.00	29.744 
07:25	20.3	20.3	20.3	87	17.1	2	6	270	0.00	29.744 
07:30	20.3	20.3	20.3	87	17.1	2	4	270	0.00	29.754 
07:35	20.5	20.5	20.5	87	17.3	2	7	292	0.00	29.754 
07:40	20.5	20.5	20.5	87	17.3	3	6	270	0.00	29.754 
07:45	20.5	20.5	20.5	87	17.3	3	7	292	0.00	29.757 
07:50	20.5	20.5	20.5	88	17.5	2	8	270	0.00	29.757 
07:55	20.5	20.5	20.5	88	17.5	3	7	270	0.00	29.757 
08:00	20.5	20.5	20.5	88	17.5	2	6	292	0.00	29.769 
08:05	20.5	20.5	20.5	88	17.5	2	4	292	0.00	29.769 
08:10	20.6	20.6	20.6	88	17.6	2	4	315	0.00	29.769 
08:15	20.6	20.6	20.6	88	17.6	2	9	315	0.00	29.779 
08:20	20.8	20.8	20.8	88	17.8	2	4	270	0.00	29.779 
08:25	20.8	20.8	20.8	88	17.8	2	7	292	0.00	29.779 
08:30	20.8	20.8	20.8	88	17.8	2	6	315	0.00	29.791 
08:35	21.0	21.0	21.0	88	18.0	2	8	315	0.00	29.791 
08:40	21.0	21.0	21.0	88	18.0	2	6	292	0.00	29.791 
08:45	21.1	21.1	21.1	88	18.1	2	7	315	0.00	29.805 
08:50	21.1	21.1	21.1	88	18.1	2	11	270	0.00	29.805 
08:55	21.3	21.3	21.3	87	18.0	3	7	292	0.00	29.805 
09:00	21.3	21.3	21.3	87	18.0	3	7	338	0.00	29.806 
09:05	21.4	21.4	21.4	87	18.1	2	5	292	0.00	29.806 
09:10	21.6	21.6	21.6	86	18.1	2	4	338	0.00	29.806 
09:15	21.6	21.6	21.6	86	18.1	2	5	338	0.00	29.825 
09:20	21.8	21.8	21.8	86	18.3	3	8	270	0.00	29.825 
09:25	21.8	21.8	21.8	86	18.3	3	7	270	0.00	29.825 
09:30	21.9	21.9	21.9	86	18.4	2	6	338	0.00	29.826 
09:35	22.1	22.1	22.1	86	18.6	2	6	315	0.00	29.826 
09:40	22.1	22.1	22.1	86	18.6	3	11	292	0.00	29.826 
09:45	22.2	22.2	22.2	86	18.7	2	5	292	0.00	29.837 
09:50	22.4	22.4	22.4	86	18.9	2	8	315	0.00	29.837 
09:55	22.5	22.5	22.5	86	19.0	2	10	270	0.00	29.837 
10:00	22.5	22.5	22.5	86	19.0	2	6	338	0.00	29.840 
10:05	22.7	22.7	22.7	86	19.2	3	6	270	0.00	29.840 
10:10	22.9	22.9	22.9	86	19.4	2	6	338	0.00	29.840 
10:15	22.7	22.7	22.7	85	18.9	3	6	338	0.00	29.856 
10:20	22.9	22.9	22.9	85	19.1	2	5	338	0.00	29.856 
10:25	22.9	22.9	22.9	85	19.1	2	6	338	0.00	29.856 
10:30	23.0	23.0	23.0	85	19.2	3	7	315	0.00	29.862 
10:35	23.0	23.0	23.0	85	19.2	3	7	315	0.00	29.862 
10:40	23.2	23.2	23.2	85	19.4	2	7	292	0.00	29.862 
10:45	23.5	23.5	23.5	85	19.7	2	5	315	0.00	29.869 
10:50	23.6	23.6	23.6	85	19.8	2	5	338	0.00	29.869 
10:55	23.9	23.9	23.9	84	19.8	2	7	338	0.00	29.869 
11:00	24.1	24.1	24.1	84	20.0	2	7	270	0.00	29.875 
11:05	24.4	24.4	24.4	84	20.3	2	7	338	0.00	29.875 
11:10	24.5	24.5	24.5	84	20.4	2	6	315	0.00	29.875 
11:15	24.7	24.7	24.7	83	20.3	2	5	315	0.00	29.882 
11:20	24.7	24.7	24.7	83	20.3	2	6	315	0.00	29.882 
11:25	24.7	24.7	24.7	83	20.3	2	4	292	0.00	29.882 
11:30	24.8	24.8	24.8	82	20.1	2	7	338	0.00	29.889 
11:35	24.7	24.7	24.7	82	20.0	2	6	292	0.00	29.889 
11:40	24.7	24.7	24.7	82	20.0	3	5	292	0.00	29.889 
11:45	24.8	24.8	24.8	82	20.1	2	5	292	0.00	29.893 
11:50	24.7	24.7	24.7	81	19.7	3	6	338	0.00	29.893 
11:55	25.0	25.0	25.0	82	20.3	2	6	338	0.00	29.893 
12:00	25.0	25.0	25.0	81	20.0	3	6	338	0.00	29.895 
12:05	25.0	25.0	25.0	81	20.0	3	6	270	0.00	29.895 
12:10	25.1	25.1	25.1	80	19.8	3	6	315	0.00	29.895 
12:15	25.1	25.1	25.1	79	19.5	3	6	270	0.00	29.900 
12:20	25.6	25.6	25.6	80	20.3	2	5	338	0.00	29.900 
12:25	25.6	25.6	25.6	79	20.0	2	5	338	0.00	29.900 
12:30	25.3	25.3	25.3	78	19.4	3	7	270	0.00	29.904 
12:35	25.1	25.1	25.1	78	19.2	2	5	315	0.00	29.904 
12:40	25.4	25.4	25.4	78	19.5	2	9	315	0.00	29.904 
12:45	25.7	25.7	25.7	77	19.5	2	4	292	0.00	29.902 
12:50	26.0	26.0	26.0	77	19.8	2	5	0	0.00	29.902 
12:55	26.1	26.1	26.1	76	19.6	2	6	292	0.00	29.902 
13:00	26.1	26.1	26.1	75	19.3	3	7	270	0.00	29.901 
13:05	26.1	26.1	26.1	75	19.3	3	6	315	0.00	29.901 
13:10	26.4	26.4	26.4	75	19.6	2	7	292	0.00	29.901 
13:15	26.7	22.0	26.7	74	19.5	4	10	270	0.00	29.900 
13:20	27.0	27.0	27.0	74	19.8	3	9	315	0.00	29.900 
13:25	27.6	27.6	27.6	75	20.7	3	5	248	0.00	29.900 
13:30	27.8	27.8	27.8	74	20.6	2	7	248	0.00	29.901 
13:35	27.8	27.8	27.8	73	20.3	3	9	270	0.00	29.901 
13:40	27.8	23.2	27.8	71	19.6	4	9	270	0.00	29.901 
13:45	27.3	27.3	27.3	70	18.8	3	7	292	0.00	29.900 
13:50	27.2	22.5	27.2	69	18.4	4	11	270	0.00	29.900 
13:55	27.0	27.0	27.0	69	18.2	3	9	338	0.00	29.900 
14:00	27.2	27.2	27.2	69	18.4	3	5	292	0.00	29.904 
14:05	27.5	27.5	27.5	68	18.3	3	7	248	0.00	29.904 
14:10	27.8	27.8	27.8	67	18.3	3	9	270	0.00	29.904 
14:15	27.8	27.8	27.8	67	18.3	3	10	338	0.00	29.904 
14:20	27.9	27.9	27.9	66	18.0	3	7	292	0.00	29.904 
14:25	27.8	22.1	27.8	65	17.6	5	11	315	0.00	29.904 
14:30	27.8	23.2	27.8	66	17.9	4	12	315	0.00	29.902 
14:35	27.9	27.9	27.9	66	18.0	3	6	338	0.00	29.902 
14:40	28.4	23.9	28.4	66	18.5	4	9	270	0.00	29.902 
14:45	28.4	23.9	28.4	65	18.2	4	9	248	0.00	29.903 
14:50	28.4	23.9	28.4	65	18.2	4	12	292	0.00	29.903 
14:55	28.7	24.3	28.7	65	18.4	4	10	292	0.00	29.903 
15:00	29.0	24.6	29.0	65	18.7	4	10	292	0.00	29.904 
15:05	29.1	29.1	29.1	66	19.2	3	9	338	0.00	29.904 
15:10	29.3	29.3	29.3	66	19.4	3	8	270	0.00	29.904 
15:15	29.0	23.6	29.0	66	19.1	5	11	338	0.00	29.912 
15:20	28.8	24.4	28.8	67	19.2	4	9	315	0.00	29.912 
15:25	28.8	24.4	28.8	67	19.2	4	9	292	0.00	29.912 
15:30	29.0	29.0	29.0	68	19.8	3	7	315	0.00	29.918 
15:35	29.1	29.1	29.1	68	19.9	2	5	292	0.00	29.918 
15:40	29.1	29.1	29.1	68	19.9	2	5	315	0.00	29.918 
15:45	29.1	29.1	29.1	68	19.9	2	5	0	0.00	29.919 
15:50	29.0	29.0	29.0	69	20.1	2	5	338	0.00	29.919 
15:55	29.0	29.0	29.0	70	20.5	3	7	248	0.00	29.919 
16:00	28.7	24.3	28.7	71	20.5	4	10	338	0.00	29.931 
16:05	28.5	24.0	28.5	71	20.3	4	10	292	0.00	29.931 
16:10	28.5	24.0	28.5	71	20.3	4	10	338	0.00	29.931 
16:15	28.5	24.0	28.5	70	20.0	4	14	270	0.00	29.932 
16:20	28.4	22.8	28.4	71	20.2	5	11	292	0.00	29.932 
16:25	28.4	23.9	28.4	72	20.5	4	10	315	0.00	29.932 
16:30	28.4	23.9	28.4	72	20.5	4	10	292	0.00	29.936 
16:35	28.4	28.4	28.4	72	20.5	3	6	338	0.00	29.936 
16:40	28.5	28.5	28.5	73	21.0	3	7	315	0.00	29.936 
16:45	28.5	28.5	28.5	74	21.3	3	8	292	0.00	29.943 
16:50	28.5	28.5	28.5	74	21.3	3	7	315	0.00	29.943 
16:55	28.4	28.4	28.4	75	21.5	3	6	315	0.00	29.943 
17:00	28.5	28.5	28.5	76	21.9	3	10	315	0.00	29.947 
17:05	28.4	28.4	28.4	76	21.8	3	9	315	0.00	29.947 
17:10	28.4	28.4	28.4	77	22.1	2	13	270	0.00	29.947 
17:15	28.4	28.4	28.4	77	22.1	3	7	270	0.00	29.945 
17:20	28.4	28.4	28.4	77	22.1	2	4	338	0.00	29.945 
17:25	28.5	28.5	28.5	77	22.2	2	4	338	0.00	29.945 
17:30	28.5	28.5	28.5	77	22.2	3	7	338	0.00	29.956 
17:35	28.5	28.5	28.5	77	22.2	2	6	270	0.00	29.956 
17:40	28.5	28.5	28.5	77	22.2	3	7	315	0.00	29.956 
17:45	28.5	28.5	28.5	78	22.5	1	4	292	0.00	29.962 
17:50	28.5	28.5	28.5	79	22.8	2	4	292	0.00	29.962 
17:55	28.7	28.7	28.7	79	23.0	2	7	338	0.00	29.962 
18:00	28.7	28.7	28.7	80	23.3	2	4	292	0.00	29.974 
18:05	28.7	28.7	28.7	81	23.6	2	3	248	0.00	29.974 
18:10	28.5	28.5	28.5	82	23.7	1	4	292	0.00	29.974 
18:15	28.5	28.5	28.5	83	24.0	2	5	315	0.00	29.976 
18:20	28.4	28.4	28.4	84	24.2	2	4	270	0.00	29.976 
18:25	28.4	28.4	28.4	85	24.5	2	6	248	0.00	29.976 
18:30	28.4	28.4	28.4	85	24.5	1	4	338	0.00	29.989 
18:35	28.5	28.5	28.5	85	24.6	1	4	0	0.00	29.989 
18:40	28.5	28.5	28.5	86	24.9	2	9	315	0.00	29.989 
18:45	28.7	28.7	28.7	86	25.1	1	4	338	0.00	29.996 
18:50	28.7	28.7	28.7	86	25.1	2	5	338	0.00	29.996 
18:55	28.7	28.7	28.7	87	25.3	2	7	315	0.00	29.996 
19:00	28.7	28.7	28.7	87	25.3	2	6	270	0.00	30.004 
19:05	28.7	28.7	28.7	88	25.6	2	7	270	0.00	30.004 
19:10	28.7	28.7	28.7	88	25.6	1	4	338	0.00	30.004 
19:15	28.7	28.7	28.7	88	25.6	2	4	338	0.00	30.004 
19:20	28.7	28.7	28.7	89	25.9	2	4	315	0.00	30.004 
19:25	28.7	28.7	28.7	89	25.9	2	4	270	0.00	30.004 
19:30	28.7	28.7	28.7	89	25.9	1	4	270	0.00	30.005 
19:35	28.7	28.7	28.7	88	25.6	1	4	0	0.00	30.005 
19:40	28.8	28.8	28.8	88	25.7	2	4	270	0.00	30.005 
19:45	28.8	28.8	28.8	87	25.4	3	7	315	0.00	30.007 
19:50	29.0	29.0	29.0	86	25.3	3	9	0	0.00	30.007 
19:55	29.0	29.0	29.0	86	25.3	3	9	315	0.00	30.007 
20:00	29.0	29.0	29.0	86	25.3	2	4	338	0.00	30.016 
20:05	29.0	29.0	29.0	86	25.3	2	5	292	0.00	30.016 
20:10	29.0	29.0	29.0	86	25.3	2	7	292	0.00	30.016 
20:15	29.0	29.0	29.0	86	25.3	2	6	270	0.00	30.018 
20:20	28.8	28.8	28.8	86	25.2	1	5	315	0.00	30.018 
20:25	28.8	28.8	28.8	86	25.2	3	6	270	0.00	30.018 
20:30	29.0	29.0	29.0	85	25.1	2	7	338	0.00	30.020 
20:35	29.0	29.0	29.0	85	25.1	2	9	315	0.00	30.020 
20:40	29.0	29.0	29.0	85	25.1	1	4	292	0.00	30.020 
20:45	29.0	29.0	29.0	85	25.1	1	4	270	0.00	30.024 
20:50	29.0	29.0	29.0	86	25.3	1	4	248	0.00	30.024 
20:55	29.0	29.0	29.0	87	25.6	1	4	248	0.00	30.024 
21:00	28.8	28.8	28.8	88	25.7	1	4	270	0.00	30.025 
21:05	28.7	28.7	28.7	88	25.6	1	3	338	0.00	30.025 
21:10	28.7	28.7	28.7	88	25.6	1	3	338	0.00	30.025 
21:15	28.5	28.5	28.5	88	25.4	1	3	315	0.00	30.020 
21:20	28.5	28.5	28.5	88	25.4	1	3	292	0.00	30.020 
21:25	28.4	28.4	28.4	88	25.3	2	5	338	0.00	30.020 
21:30	28.4	28.4	28.4	88	25.3	3	6	315	0.00	30.029 
21:35	28.5	28.5	28.5	86	24.9	2	6	270	0.00	30.029 
21:40	28.5	28.5	28.5	84	24.3	1	7	270	0.00	30.029 
21:45	28.7	28.7	28.7	82	23.9	2	6	315	0.00	30.031 
21:50	28.8	28.8	28.8	81	23.7	2	5	338	0.00	30.031 
21:55	28.8	28.8	28.8	79	23.1	2	6	315	0.00	30.031 
22:00	29.0	29.0	29.0	78	23.0	3	10	315	0.00	30.034 
22:05	29.0	29.0	29.0	76	22.4	3	6	292	0.00	30.034 
22:10	29.0	29.0	29.0	75	22.1	2	5	0	0.00	30.034 
22:15	29.0	29.0	29.0	75	22.1	2	8	315	0.00	30.039 
22:20	29.0	29.0	29.0	74	21.8	2	6	270	0.00	30.039 
22:25	29.0	29.0	29.0	74	21.8	1	4	315	0.00	30.039 
22:30	28.8	28.8	28.8	74	21.6	1	3	0	0.00	30.036 
22:35	28.8	28.8	28.8	75	21.9	1	3	315	0.00	30.036 
22:40	28.8	28.8	28.8	75	21.9	1	3	292	0.00	30.036 
22:45	28.7	28.7	28.7	77	22.4	1	3	248	0.00	30.040 
22:50	28.7	28.7	28.7	76	22.1	2	6	338	0.00	30.040 
22:55	28.7	28.7	28.7	74	21.5	2	6	315	0.00	30.040 
23:00	28.7	28.7	28.7	72	20.8	2	9	338	0.00	30.043 
23:05	28.7	28.7	28.7	71	20.5	2	7	315	0.00	30.043 
23:10	28.7	28.7	28.7	71	20.5	2	6	270	0.00	30.043 
23:15	28.7	28.7	28.7	70	20.2	2	4	292	0.00	30.045 
23:20	28.5	28.5	28.5	71	20.3	2	6	338	0.00	30.045 
23:25	28.5	28.5	28.5	71	20.3	2	6	338	0.00	30.045 
23:30	28.5	24.0	28.5	71	20.3	4	11	292	0.00	30.046 
23:35	28.5	28.5	28.5	71	20.3	2	6	338	0.00	30.046 
23:40	28.5	28.5	28.5	71	20.3	2	4	270	0.00	30.046 
23:45	28.4	28.4	28.4	72	20.5	1	5	292	0.00	30.050 
23:50	28.4	28.4	28.4	72	20.5	2	4	292	0.00	30.050 
23:55	28.4	28.4	28.4	73	20.9	1	4	270	0.00	30.050 

CoCoRaHS
IN-AL-39
A2 Web Hosting
Creative Commons License
GoDaddy
search engine by freefind advanced

loaded 2018-11-12 14:48:06 • last modified 2010-11-18 10:43:29
Privacy PolicyDisclaimer
• wx.awcolley.com is powered by PmWiki v.2002016 •
• all content (unless otherwise noted) © 2018 A W Colley